sensor_id;sensor_type;location;lat;lon;timestamp;temperature;humidity
14727;DHT22;7454;51.256;8.176;2023-01-31T00:00:18;3.80;78.40
14727;DHT22;7454;51.256;8.176;2023-01-31T00:02:44;3.80;78.40
14727;DHT22;7454;51.256;8.176;2023-01-31T00:05:09;3.80;78.50
14727;DHT22;7454;51.256;8.176;2023-01-31T00:07:35;3.80;78.50
14727;DHT22;7454;51.256;8.176;2023-01-31T00:10:01;3.80;78.50
14727;DHT22;7454;51.256;8.176;2023-01-31T00:12:26;3.80;78.50
14727;DHT22;7454;51.256;8.176;2023-01-31T00:14:52;3.80;78.50
14727;DHT22;7454;51.256;8.176;2023-01-31T00:17:18;3.80;78.60
14727;DHT22;7454;51.256;8.176;2023-01-31T00:19:43;3.80;78.50
14727;DHT22;7454;51.256;8.176;2023-01-31T00:22:09;3.80;78.60
14727;DHT22;7454;51.256;8.176;2023-01-31T00:24:35;3.80;78.50
14727;DHT22;7454;51.256;8.176;2023-01-31T00:27:00;3.80;78.60
14727;DHT22;7454;51.256;8.176;2023-01-31T00:29:26;3.80;78.60
14727;DHT22;7454;51.256;8.176;2023-01-31T00:31:51;3.80;78.60
14727;DHT22;7454;51.256;8.176;2023-01-31T00:34:17;3.80;78.60
14727;DHT22;7454;51.256;8.176;2023-01-31T00:36:43;3.80;78.60
14727;DHT22;7454;51.256;8.176;2023-01-31T00:39:09;3.80;78.70
14727;DHT22;7454;51.256;8.176;2023-01-31T00:41:36;3.80;78.70
14727;DHT22;7454;51.256;8.176;2023-01-31T00:44:03;3.80;78.70
14727;DHT22;7454;51.256;8.176;2023-01-31T00:46:29;3.80;78.70
14727;DHT22;7454;51.256;8.176;2023-01-31T00:48:55;3.80;78.60
14727;DHT22;7454;51.256;8.176;2023-01-31T00:51:21;3.80;78.60
14727;DHT22;7454;51.256;8.176;2023-01-31T00:53:48;3.80;78.50
14727;DHT22;7454;51.256;8.176;2023-01-31T00:56:17;3.80;78.60
14727;DHT22;7454;51.256;8.176;2023-01-31T00:58:44;3.70;78.60
14727;DHT22;7454;51.256;8.176;2023-01-31T01:01:11;3.80;78.60
14727;DHT22;7454;51.256;8.176;2023-01-31T01:03:43;3.80;78.40
14727;DHT22;7454;51.256;8.176;2023-01-31T01:06:10;3.80;78.60
14727;DHT22;7454;51.256;8.176;2023-01-31T01:08:37;3.80;78.50
14727;DHT22;7454;51.256;8.176;2023-01-31T01:11:07;3.80;78.60
14727;DHT22;7454;51.256;8.176;2023-01-31T01:13:35;3.80;78.60
14727;DHT22;7454;51.256;8.176;2023-01-31T01:16:07;3.80;78.60
14727;DHT22;7454;51.256;8.176;2023-01-31T01:18:34;3.80;78.50
14727;DHT22;7454;51.256;8.176;2023-01-31T01:21:09;3.80;78.50
14727;DHT22;7454;51.256;8.176;2023-01-31T01:23:38;3.80;78.60
14727;DHT22;7454;51.256;8.176;2023-01-31T01:26:04;3.70;78.50
14727;DHT22;7454;51.256;8.176;2023-01-31T01:28:33;3.90;78.60
14727;DHT22;7454;51.256;8.176;2023-01-31T01:31:03;3.80;78.50
14727;DHT22;7454;51.256;8.176;2023-01-31T01:33:30;3.80;78.40
14727;DHT22;7454;51.256;8.176;2023-01-31T01:36:02;3.70;78.40
14727;DHT22;7454;51.256;8.176;2023-01-31T01:38:29;3.80;78.50
14727;DHT22;7454;51.256;8.176;2023-01-31T01:40:55;3.80;78.40
14727;DHT22;7454;51.256;8.176;2023-01-31T01:43:23;3.80;78.40
14727;DHT22;7454;51.256;8.176;2023-01-31T01:46:04;3.80;78.40
14727;DHT22;7454;51.256;8.176;2023-01-31T01:48:29;3.70;78.30
14727;DHT22;7454;51.256;8.176;2023-01-31T01:50:55;3.70;78.40
14727;DHT22;7454;51.256;8.176;2023-01-31T01:53:22;3.70;78.30
14727;DHT22;7454;51.256;8.176;2023-01-31T01:55:55;3.70;78.30
14727;DHT22;7454;51.256;8.176;2023-01-31T01:58:57;3.70;78.30
14727;DHT22;7454;51.256;8.176;2023-01-31T02:01:25;3.80;78.30
14727;DHT22;7454;51.256;8.176;2023-01-31T02:03:54;3.80;78.30
14727;DHT22;7454;51.256;8.176;2023-01-31T02:06:20;3.70;78.30
14727;DHT22;7454;51.256;8.176;2023-01-31T02:08:46;3.70;78.30
14727;DHT22;7454;51.256;8.176;2023-01-31T02:13:49;3.70;78.20
14727;DHT22;7454;51.256;8.176;2023-01-31T02:16:15;3.70;78.10
14727;DHT22;7454;51.256;8.176;2023-01-31T02:18:42;3.70;78.00
14727;DHT22;7454;51.256;8.176;2023-01-31T02:24:17;3.70;78.10
14727;DHT22;7454;51.256;8.176;2023-01-31T02:35:05;3.70;78.10
14727;DHT22;7454;51.256;8.176;2023-01-31T02:49:21;3.60;78.10
14727;DHT22;7454;51.256;8.176;2023-01-31T02:52:32;3.60;78.10
14727;DHT22;7454;51.256;8.176;2023-01-31T02:58:04;3.50;78.50
14727;DHT22;7454;51.256;8.176;2023-01-31T03:00:33;3.50;78.70
14727;DHT22;7454;51.256;8.176;2023-01-31T03:02:59;3.50;78.70
14727;DHT22;7454;51.256;8.176;2023-01-31T03:05:27;3.40;78.70
14727;DHT22;7454;51.256;8.176;2023-01-31T03:07:54;3.40;78.70
14727;DHT22;7454;51.256;8.176;2023-01-31T03:13:29;3.40;78.70
14727;DHT22;7454;51.256;8.176;2023-01-31T03:16:01;3.40;78.70
14727;DHT22;7454;51.256;8.176;2023-01-31T03:21:19;3.40;78.70
14727;DHT22;7454;51.256;8.176;2023-01-31T03:23:49;3.40;78.60
14727;DHT22;7454;51.256;8.176;2023-01-31T03:26:16;3.40;78.60
14727;DHT22;7454;51.256;8.176;2023-01-31T03:28:44;3.40;78.60
14727;DHT22;7454;51.256;8.176;2023-01-31T03:33:44;3.40;78.70
14727;DHT22;7454;51.256;8.176;2023-01-31T03:36:18;3.40;78.60
14727;DHT22;7454;51.256;8.176;2023-01-31T03:38:53;3.40;78.60
14727;DHT22;7454;51.256;8.176;2023-01-31T03:41:42;3.40;78.60
14727;DHT22;7454;51.256;8.176;2023-01-31T03:44:19;3.40;78.60
14727;DHT22;7454;51.256;8.176;2023-01-31T03:47:38;3.40;78.60
14727;DHT22;7454;51.256;8.176;2023-01-31T03:49:47;3.40;78.60
14727;DHT22;7454;51.256;8.176;2023-01-31T03:52:15;3.40;78.60
14727;DHT22;7454;51.256;8.176;2023-01-31T03:54:46;3.40;78.60
14727;DHT22;7454;51.256;8.176;2023-01-31T03:57:18;3.40;78.50
14727;DHT22;7454;51.256;8.176;2023-01-31T03:59:46;3.40;78.50
14727;DHT22;7454;51.256;8.176;2023-01-31T04:02:18;3.40;78.40
14727;DHT22;7454;51.256;8.176;2023-01-31T04:04:47;3.40;78.50
14727;DHT22;7454;51.256;8.176;2023-01-31T04:07:23;3.40;78.50
14727;DHT22;7454;51.256;8.176;2023-01-31T04:09:49;3.40;78.60
14727;DHT22;7454;51.256;8.176;2023-01-31T04:12:15;3.40;78.60
14727;DHT22;7454;51.256;8.176;2023-01-31T04:14:41;3.40;78.70
14727;DHT22;7454;51.256;8.176;2023-01-31T04:17:07;3.40;78.70
14727;DHT22;7454;51.256;8.176;2023-01-31T04:19:32;3.40;78.70
14727;DHT22;7454;51.256;8.176;2023-01-31T04:21:58;3.40;78.70
14727;DHT22;7454;51.256;8.176;2023-01-31T04:24:24;3.40;78.80
14727;DHT22;7454;51.256;8.176;2023-01-31T04:26:49;3.40;78.70
14727;DHT22;7454;51.256;8.176;2023-01-31T04:29:15;3.40;78.70
14727;DHT22;7454;51.256;8.176;2023-01-31T04:31:41;3.30;78.70
14727;DHT22;7454;51.256;8.176;2023-01-31T04:34:06;3.30;78.70
14727;DHT22;7454;51.256;8.176;2023-01-31T04:36:32;3.30;78.70
14727;DHT22;7454;51.256;8.176;2023-01-31T04:38:58;3.30;78.70
14727;DHT22;7454;51.256;8.176;2023-01-31T04:41:25;3.30;78.60
14727;DHT22;7454;51.256;8.176;2023-01-31T04:43:51;3.20;78.70
14727;DHT22;7454;51.256;8.176;2023-01-31T04:46:17;3.20;78.70
14727;DHT22;7454;51.256;8.176;2023-01-31T04:48:43;3.20;78.70
14727;DHT22;7454;51.256;8.176;2023-01-31T04:51:09;3.20;78.80
14727;DHT22;7454;51.256;8.176;2023-01-31T04:53:34;3.20;78.80
14727;DHT22;7454;51.256;8.176;2023-01-31T04:56:00;3.20;78.80
14727;DHT22;7454;51.256;8.176;2023-01-31T04:58:26;3.20;78.80
14727;DHT22;7454;51.256;8.176;2023-01-31T05:00:52;3.20;78.80
14727;DHT22;7454;51.256;8.176;2023-01-31T05:03:18;3.20;78.80
14727;DHT22;7454;51.256;8.176;2023-01-31T05:05:46;3.20;78.80
14727;DHT22;7454;51.256;8.176;2023-01-31T05:08:12;3.10;78.80
14727;DHT22;7454;51.256;8.176;2023-01-31T05:10:38;3.10;78.80
14727;DHT22;7454;51.256;8.176;2023-01-31T05:13:04;3.10;78.90
14727;DHT22;7454;51.256;8.176;2023-01-31T05:15:29;3.10;78.90
14727;DHT22;7454;51.256;8.176;2023-01-31T05:17:56;3.10;78.90
14727;DHT22;7454;51.256;8.176;2023-01-31T05:20:35;3.10;79.00
14727;DHT22;7454;51.256;8.176;2023-01-31T05:23:04;3.10;79.00
14727;DHT22;7454;51.256;8.176;2023-01-31T05:25:29;3.10;79.00
14727;DHT22;7454;51.256;8.176;2023-01-31T05:27:55;3.10;79.00
14727;DHT22;7454;51.256;8.176;2023-01-31T05:30:21;3.10;79.00
14727;DHT22;7454;51.256;8.176;2023-01-31T05:32:48;3.10;79.10
14727;DHT22;7454;51.256;8.176;2023-01-31T05:35:14;3.10;79.10
14727;DHT22;7454;51.256;8.176;2023-01-31T05:37:40;3.20;79.10
14727;DHT22;7454;51.256;8.176;2023-01-31T05:40:14;3.20;79.20
14727;DHT22;7454;51.256;8.176;2023-01-31T05:42:41;3.20;79.20
14727;DHT22;7454;51.256;8.176;2023-01-31T05:45:07;3.20;79.20
14727;DHT22;7454;51.256;8.176;2023-01-31T05:47:34;3.20;79.20
14727;DHT22;7454;51.256;8.176;2023-01-31T05:50:00;3.20;79.20
14727;DHT22;7454;51.256;8.176;2023-01-31T05:52:26;3.20;79.20
14727;DHT22;7454;51.256;8.176;2023-01-31T05:54:52;3.20;79.30
14727;DHT22;7454;51.256;8.176;2023-01-31T05:57:17;3.20;79.30
14727;DHT22;7454;51.256;8.176;2023-01-31T05:59:43;3.20;79.20
14727;DHT22;7454;51.256;8.176;2023-01-31T06:02:09;3.30;79.30
14727;DHT22;7454;51.256;8.176;2023-01-31T06:04:37;3.20;79.30
14727;DHT22;7454;51.256;8.176;2023-01-31T06:07:03;3.20;79.30
14727;DHT22;7454;51.256;8.176;2023-01-31T06:09:29;3.20;79.20
14727;DHT22;7454;51.256;8.176;2023-01-31T06:11:54;3.30;79.30
14727;DHT22;7454;51.256;8.176;2023-01-31T06:14:20;3.30;79.30
14727;DHT22;7454;51.256;8.176;2023-01-31T06:16:46;3.30;79.30
14727;DHT22;7454;51.256;8.176;2023-01-31T06:19:11;3.30;79.30
14727;DHT22;7454;51.256;8.176;2023-01-31T06:21:37;3.30;79.30
14727;DHT22;7454;51.256;8.176;2023-01-31T06:24:03;3.30;79.30
14727;DHT22;7454;51.256;8.176;2023-01-31T06:26:29;3.30;79.30
14727;DHT22;7454;51.256;8.176;2023-01-31T06:28:54;3.30;79.30
14727;DHT22;7454;51.256;8.176;2023-01-31T06:31:20;3.30;79.30
14727;DHT22;7454;51.256;8.176;2023-01-31T06:33:46;3.40;79.30
14727;DHT22;7454;51.256;8.176;2023-01-31T06:36:11;3.40;79.30
14727;DHT22;7454;51.256;8.176;2023-01-31T06:38:37;3.40;79.30
14727;DHT22;7454;51.256;8.176;2023-01-31T06:41:03;3.40;79.30
14727;DHT22;7454;51.256;8.176;2023-01-31T06:43:28;3.40;79.30
14727;DHT22;7454;51.256;8.176;2023-01-31T06:45:54;3.40;79.30
14727;DHT22;7454;51.256;8.176;2023-01-31T06:48:20;3.50;79.30
14727;DHT22;7454;51.256;8.176;2023-01-31T06:50:45;3.40;79.20
14727;DHT22;7454;51.256;8.176;2023-01-31T06:53:11;3.50;79.30
14727;DHT22;7454;51.256;8.176;2023-01-31T06:55:37;3.50;79.20
14727;DHT22;7454;51.256;8.176;2023-01-31T06:58:03;3.50;79.20
14727;DHT22;7454;51.256;8.176;2023-01-31T07:00:29;3.50;79.20
14727;DHT22;7454;51.256;8.176;2023-01-31T07:02:55;3.50;79.20
14727;DHT22;7454;51.256;8.176;2023-01-31T07:05:21;3.50;79.30
14727;DHT22;7454;51.256;8.176;2023-01-31T07:07:47;3.60;79.20
14727;DHT22;7454;51.256;8.176;2023-01-31T07:10:14;3.60;79.10
14727;DHT22;7454;51.256;8.176;2023-01-31T07:12:40;3.60;79.10
14727;DHT22;7454;51.256;8.176;2023-01-31T07:15:06;3.60;79.00
14727;DHT22;7454;51.256;8.176;2023-01-31T07:17:33;3.60;79.00
14727;DHT22;7454;51.256;8.176;2023-01-31T07:19:59;3.60;79.00
14727;DHT22;7454;51.256;8.176;2023-01-31T07:22:24;3.60;79.00
14727;DHT22;7454;51.256;8.176;2023-01-31T07:24:50;3.70;79.10
14727;DHT22;7454;51.256;8.176;2023-01-31T07:27:16;3.70;79.00
14727;DHT22;7454;51.256;8.176;2023-01-31T07:29:41;3.70;79.00
14727;DHT22;7454;51.256;8.176;2023-01-31T07:32:08;3.70;79.00
14727;DHT22;7454;51.256;8.176;2023-01-31T07:34:33;3.70;79.00
14727;DHT22;7454;51.256;8.176;2023-01-31T07:36:59;3.70;79.00
14727;DHT22;7454;51.256;8.176;2023-01-31T07:39:25;3.70;78.90
14727;DHT22;7454;51.256;8.176;2023-01-31T07:41:51;3.80;78.90
14727;DHT22;7454;51.256;8.176;2023-01-31T07:44:17;3.80;78.90
14727;DHT22;7454;51.256;8.176;2023-01-31T07:46:43;3.80;78.80
14727;DHT22;7454;51.256;8.176;2023-01-31T07:49:09;3.80;78.80
14727;DHT22;7454;51.256;8.176;2023-01-31T07:51:35;4.00;78.80
14727;DHT22;7454;51.256;8.176;2023-01-31T07:54:03;3.80;78.70
14727;DHT22;7454;51.256;8.176;2023-01-31T07:56:30;3.90;78.80
14727;DHT22;7454;51.256;8.176;2023-01-31T07:58:55;3.90;78.70
14727;DHT22;7454;51.256;8.176;2023-01-31T08:01:21;3.90;78.80
14727;DHT22;7454;51.256;8.176;2023-01-31T08:04:08;3.90;78.70
14727;DHT22;7454;51.256;8.176;2023-01-31T08:06:34;3.90;78.70
14727;DHT22;7454;51.256;8.176;2023-01-31T08:09:00;3.90;78.60
14727;DHT22;7454;51.256;8.176;2023-01-31T08:11:26;4.00;78.60
14727;DHT22;7454;51.256;8.176;2023-01-31T08:13:52;4.00;78.60
14727;DHT22;7454;51.256;8.176;2023-01-31T08:16:18;4.00;78.70
14727;DHT22;7454;51.256;8.176;2023-01-31T08:18:45;4.10;78.80
14727;DHT22;7454;51.256;8.176;2023-01-31T08:21:12;4.10;78.70
14727;DHT22;7454;51.256;8.176;2023-01-31T08:23:38;4.10;78.60
14727;DHT22;7454;51.256;8.176;2023-01-31T08:26:10;4.10;78.60
14727;DHT22;7454;51.256;8.176;2023-01-31T08:28:38;4.10;78.60
14727;DHT22;7454;51.256;8.176;2023-01-31T08:31:04;4.10;78.60
14727;DHT22;7454;51.256;8.176;2023-01-31T08:33:31;4.10;78.70
14727;DHT22;7454;51.256;8.176;2023-01-31T08:35:57;4.20;78.70
14727;DHT22;7454;51.256;8.176;2023-01-31T08:38:32;4.10;78.70
14727;DHT22;7454;51.256;8.176;2023-01-31T08:40:59;4.10;78.70
14727;DHT22;7454;51.256;8.176;2023-01-31T08:43:25;4.10;78.70
14727;DHT22;7454;51.256;8.176;2023-01-31T08:45:51;4.10;78.70
14727;DHT22;7454;51.256;8.176;2023-01-31T08:48:16;4.10;78.70
14727;DHT22;7454;51.256;8.176;2023-01-31T08:50:42;4.10;78.80
14727;DHT22;7454;51.256;8.176;2023-01-31T08:53:08;4.20;78.80
14727;DHT22;7454;51.256;8.176;2023-01-31T08:55:34;4.10;78.70
14727;DHT22;7454;51.256;8.176;2023-01-31T08:58:00;4.20;78.70
14727;DHT22;7454;51.256;8.176;2023-01-31T09:00:27;4.20;78.80
14727;DHT22;7454;51.256;8.176;2023-01-31T09:02:53;4.20;78.80
14727;DHT22;7454;51.256;8.176;2023-01-31T09:05:20;4.20;78.80
14727;DHT22;7454;51.256;8.176;2023-01-31T09:07:46;4.20;78.70
14727;DHT22;7454;51.256;8.176;2023-01-31T09:10:11;4.20;78.70
14727;DHT22;7454;51.256;8.176;2023-01-31T09:12:37;4.20;78.70
14727;DHT22;7454;51.256;8.176;2023-01-31T09:15:03;4.20;78.70
14727;DHT22;7454;51.256;8.176;2023-01-31T09:17:29;4.20;78.70
14727;DHT22;7454;51.256;8.176;2023-01-31T09:19:55;4.30;78.80
14727;DHT22;7454;51.256;8.176;2023-01-31T09:22:21;4.30;78.80
14727;DHT22;7454;51.256;8.176;2023-01-31T09:24:47;4.30;78.80
14727;DHT22;7454;51.256;8.176;2023-01-31T09:27:13;4.30;78.80
14727;DHT22;7454;51.256;8.176;2023-01-31T09:29:39;4.30;78.80
14727;DHT22;7454;51.256;8.176;2023-01-31T09:32:05;4.30;78.80
14727;DHT22;7454;51.256;8.176;2023-01-31T09:34:31;4.30;78.80
14727;DHT22;7454;51.256;8.176;2023-01-31T09:36:57;4.30;78.80
14727;DHT22;7454;51.256;8.176;2023-01-31T09:39:23;4.30;78.90
14727;DHT22;7454;51.256;8.176;2023-01-31T09:41:57;4.30;79.00
14727;DHT22;7454;51.256;8.176;2023-01-31T09:44:34;4.20;79.00
14727;DHT22;7454;51.256;8.176;2023-01-31T09:49:56;4.30;79.10
14727;DHT22;7454;51.256;8.176;2023-01-31T09:52:20;4.30;79.10
14727;DHT22;7454;51.256;8.176;2023-01-31T09:54:47;4.30;79.10
14727;DHT22;7454;51.256;8.176;2023-01-31T09:57:18;4.30;79.10
14727;DHT22;7454;51.256;8.176;2023-01-31T09:59:48;4.30;79.20
14727;DHT22;7454;51.256;8.176;2023-01-31T10:07:40;4.30;79.30
14727;DHT22;7454;51.256;8.176;2023-01-31T10:12:59;4.30;79.40
14727;DHT22;7454;51.256;8.176;2023-01-31T10:15:31;4.30;79.30
14727;DHT22;7454;51.256;8.176;2023-01-31T10:18:07;4.30;79.30
14727;DHT22;7454;51.256;8.176;2023-01-31T10:20:37;4.30;79.30
14727;DHT22;7454;51.256;8.176;2023-01-31T10:23:07;4.30;79.50
14727;DHT22;7454;51.256;8.176;2023-01-31T10:25:38;4.30;79.50
14727;DHT22;7454;51.256;8.176;2023-01-31T10:28:12;4.30;79.60
14727;DHT22;7454;51.256;8.176;2023-01-31T10:33:31;4.20;79.70
14727;DHT22;7454;51.256;8.176;2023-01-31T10:36:38;4.20;79.60
14727;DHT22;7454;51.256;8.176;2023-01-31T10:39:18;4.20;79.80
14727;DHT22;7454;51.256;8.176;2023-01-31T10:44:30;4.20;79.80
14727;DHT22;7454;51.256;8.176;2023-01-31T10:47:13;4.20;79.90
14727;DHT22;7454;51.256;8.176;2023-01-31T10:49:41;4.20;80.10
14727;DHT22;7454;51.256;8.176;2023-01-31T10:52:27;4.20;80.10
14727;DHT22;7454;51.256;8.176;2023-01-31T10:57:48;4.20;80.10
14727;DHT22;7454;51.256;8.176;2023-01-31T11:00:27;4.20;80.50
14727;DHT22;7454;51.256;8.176;2023-01-31T11:02:55;4.20;80.20
14727;DHT22;7454;51.256;8.176;2023-01-31T11:05:22;4.20;80.40
14727;DHT22;7454;51.256;8.176;2023-01-31T11:07:49;4.20;80.50
14727;DHT22;7454;51.256;8.176;2023-01-31T11:13:10;4.20;80.50
14727;DHT22;7454;51.256;8.176;2023-01-31T11:15:42;4.20;80.50
14727;DHT22;7454;51.256;8.176;2023-01-31T11:18:09;4.20;80.60
14727;DHT22;7454;51.256;8.176;2023-01-31T11:20:45;4.20;80.60
14727;DHT22;7454;51.256;8.176;2023-01-31T11:23:16;4.10;80.60
14727;DHT22;7454;51.256;8.176;2023-01-31T11:25:50;4.20;80.80
14727;DHT22;7454;51.256;8.176;2023-01-31T11:30:49;4.20;81.20
14727;DHT22;7454;51.256;8.176;2023-01-31T11:36:20;4.30;81.30
14727;DHT22;7454;51.256;8.176;2023-01-31T11:38:48;4.30;81.30
14727;DHT22;7454;51.256;8.176;2023-01-31T11:41:24;4.30;81.30
14727;DHT22;7454;51.256;8.176;2023-01-31T11:44:12;4.30;81.50
14727;DHT22;7454;51.256;8.176;2023-01-31T11:49:26;4.40;81.70
14727;DHT22;7454;51.256;8.176;2023-01-31T11:51:55;4.40;81.40
14727;DHT22;7454;51.256;8.176;2023-01-31T11:54:29;4.40;81.50
14727;DHT22;7454;51.256;8.176;2023-01-31T11:56:56;4.40;81.20
14727;DHT22;7454;51.256;8.176;2023-01-31T11:59:24;4.30;81.10
14727;DHT22;7454;51.256;8.176;2023-01-31T12:01:54;4.30;81.30
14727;DHT22;7454;51.256;8.176;2023-01-31T12:04:25;4.30;81.30
14727;DHT22;7454;51.256;8.176;2023-01-31T12:06:56;4.30;81.50
14727;DHT22;7454;51.256;8.176;2023-01-31T12:09:29;4.20;81.40
14727;DHT22;7454;51.256;8.176;2023-01-31T12:11:58;4.20;81.20
14727;DHT22;7454;51.256;8.176;2023-01-31T12:14:37;4.20;81.60
14727;DHT22;7454;51.256;8.176;2023-01-31T12:17:05;4.20;82.00
14727;DHT22;7454;51.256;8.176;2023-01-31T12:19:42;4.20;82.00
14727;DHT22;7454;51.256;8.176;2023-01-31T12:22:19;4.20;82.10
14727;DHT22;7454;51.256;8.176;2023-01-31T12:27:48;4.30;81.80
14727;DHT22;7454;51.256;8.176;2023-01-31T12:35:37;4.30;82.40
14727;DHT22;7454;51.256;8.176;2023-01-31T12:40:36;4.40;82.20
14727;DHT22;7454;51.256;8.176;2023-01-31T12:43:11;4.40;82.00
14727;DHT22;7454;51.256;8.176;2023-01-31T12:45:50;4.50;82.20
14727;DHT22;7454;51.256;8.176;2023-01-31T12:57:42;4.40;81.90
14727;DHT22;7454;51.256;8.176;2023-01-31T13:02:41;4.50;81.90
14727;DHT22;7454;51.256;8.176;2023-01-31T13:07:58;4.50;82.30
14727;DHT22;7454;51.256;8.176;2023-01-31T13:10:53;4.50;82.30
14727;DHT22;7454;51.256;8.176;2023-01-31T13:13:30;4.60;82.30
14727;DHT22;7454;51.256;8.176;2023-01-31T13:16:01;4.60;82.20
14727;DHT22;7454;51.256;8.176;2023-01-31T13:18:29;4.50;82.10
14727;DHT22;7454;51.256;8.176;2023-01-31T13:20:59;4.60;82.30
14727;DHT22;7454;51.256;8.176;2023-01-31T13:23:38;4.50;82.10
14727;DHT22;7454;51.256;8.176;2023-01-31T13:26:10;4.60;82.30
14727;DHT22;7454;51.256;8.176;2023-01-31T13:28:43;4.60;82.30
14727;DHT22;7454;51.256;8.176;2023-01-31T13:31:14;4.50;82.10
14727;DHT22;7454;51.256;8.176;2023-01-31T13:33:46;4.60;82.10
14727;DHT22;7454;51.256;8.176;2023-01-31T13:38:43;4.70;82.30
14727;DHT22;7454;51.256;8.176;2023-01-31T13:41:16;4.70;82.30
14727;DHT22;7454;51.256;8.176;2023-01-31T13:43:45;4.70;82.50
14727;DHT22;7454;51.256;8.176;2023-01-31T13:46:11;4.70;82.50
14727;DHT22;7454;51.256;8.176;2023-01-31T13:48:46;4.70;82.70
14727;DHT22;7454;51.256;8.176;2023-01-31T13:51:36;4.70;82.90
14727;DHT22;7454;51.256;8.176;2023-01-31T13:54:19;4.70;83.10
14727;DHT22;7454;51.256;8.176;2023-01-31T13:56:51;4.70;83.40
14727;DHT22;7454;51.256;8.176;2023-01-31T13:59:23;4.70;83.90
14727;DHT22;7454;51.256;8.176;2023-01-31T14:01:51;4.70;84.30
14727;DHT22;7454;51.256;8.176;2023-01-31T14:04:20;4.70;84.30
14727;DHT22;7454;51.256;8.176;2023-01-31T14:09:27;4.70;84.50
14727;DHT22;7454;51.256;8.176;2023-01-31T14:11:54;4.70;85.60
14727;DHT22;7454;51.256;8.176;2023-01-31T14:14:27;4.70;85.60
14727;DHT22;7454;51.256;8.176;2023-01-31T14:16:54;4.70;85.50
14727;DHT22;7454;51.256;8.176;2023-01-31T14:27:20;4.80;85.50
14727;DHT22;7454;51.256;8.176;2023-01-31T14:40:32;4.90;84.90
14727;DHT22;7454;51.256;8.176;2023-01-31T14:43:50;4.90;84.90
14727;DHT22;7454;51.256;8.176;2023-01-31T14:53:40;4.90;85.20
14727;DHT22;7454;51.256;8.176;2023-01-31T14:56:35;4.90;85.00
14727;DHT22;7454;51.256;8.176;2023-01-31T14:59:31;4.90;85.00
14727;DHT22;7454;51.256;8.176;2023-01-31T15:01:59;4.90;85.40
14727;DHT22;7454;51.256;8.176;2023-01-31T15:04:27;4.90;85.20
14727;DHT22;7454;51.256;8.176;2023-01-31T15:06:53;4.90;85.30
14727;DHT22;7454;51.256;8.176;2023-01-31T15:11:49;4.90;84.50
14727;DHT22;7454;51.256;8.176;2023-01-31T15:14:20;4.90;84.10
14727;DHT22;7454;51.256;8.176;2023-01-31T15:17:02;4.90;84.00
14727;DHT22;7454;51.256;8.176;2023-01-31T15:19:43;4.90;83.80
14727;DHT22;7454;51.256;8.176;2023-01-31T15:22:11;5.00;83.70
14727;DHT22;7454;51.256;8.176;2023-01-31T15:24:38;4.90;83.50
14727;DHT22;7454;51.256;8.176;2023-01-31T15:27:24;5.00;83.90
14727;DHT22;7454;51.256;8.176;2023-01-31T15:32:21;5.00;84.30
14727;DHT22;7454;51.256;8.176;2023-01-31T15:34:53;5.00;84.80
14727;DHT22;7454;51.256;8.176;2023-01-31T15:37:22;5.00;84.90
14727;DHT22;7454;51.256;8.176;2023-01-31T15:39:56;5.00;85.50
14727;DHT22;7454;51.256;8.176;2023-01-31T15:42:29;5.00;85.50
14727;DHT22;7454;51.256;8.176;2023-01-31T15:47:57;5.00;85.60
14727;DHT22;7454;51.256;8.176;2023-01-31T15:50:27;5.00;85.90
14727;DHT22;7454;51.256;8.176;2023-01-31T15:52:55;5.00;86.20
14727;DHT22;7454;51.256;8.176;2023-01-31T15:55:21;5.00;86.70
14727;DHT22;7454;51.256;8.176;2023-01-31T15:57:54;5.00;87.10
14727;DHT22;7454;51.256;8.176;2023-01-31T16:00:23;5.00;86.70
14727;DHT22;7454;51.256;8.176;2023-01-31T16:02:57;5.00;85.50
14727;DHT22;7454;51.256;8.176;2023-01-31T16:05:33;5.00;85.10
14727;DHT22;7454;51.256;8.176;2023-01-31T16:08:02;5.00;84.80
14727;DHT22;7454;51.256;8.176;2023-01-31T16:10:29;5.10;84.50
14727;DHT22;7454;51.256;8.176;2023-01-31T16:12:56;5.10;84.50
14727;DHT22;7454;51.256;8.176;2023-01-31T16:15:23;5.10;84.40
14727;DHT22;7454;51.256;8.176;2023-01-31T16:17:51;5.10;84.20
14727;DHT22;7454;51.256;8.176;2023-01-31T16:20:34;5.10;84.50
14727;DHT22;7454;51.256;8.176;2023-01-31T16:26:06;5.20;83.50
14727;DHT22;7454;51.256;8.176;2023-01-31T16:28:39;5.20;83.50
14727;DHT22;7454;51.256;8.176;2023-01-31T16:31:08;5.20;83.20
14727;DHT22;7454;51.256;8.176;2023-01-31T16:33:35;5.20;83.30
14727;DHT22;7454;51.256;8.176;2023-01-31T16:36:03;5.40;83.70
14727;DHT22;7454;51.256;8.176;2023-01-31T16:38:30;5.20;84.10
14727;DHT22;7454;51.256;8.176;2023-01-31T16:40:56;5.20;84.80
14727;DHT22;7454;51.256;8.176;2023-01-31T16:43:25;5.20;85.40
14727;DHT22;7454;51.256;8.176;2023-01-31T16:45:59;5.20;85.40
14727;DHT22;7454;51.256;8.176;2023-01-31T16:48:30;5.20;85.20
14727;DHT22;7454;51.256;8.176;2023-01-31T16:50:59;5.20;84.90
14727;DHT22;7454;51.256;8.176;2023-01-31T16:53:30;5.20;84.80
14727;DHT22;7454;51.256;8.176;2023-01-31T16:58:42;5.20;83.40
14727;DHT22;7454;51.256;8.176;2023-01-31T17:01:11;5.20;83.20
14727;DHT22;7454;51.256;8.176;2023-01-31T17:03:38;5.20;83.30
14727;DHT22;7454;51.256;8.176;2023-01-31T17:06:04;5.20;83.40
14727;DHT22;7454;51.256;8.176;2023-01-31T17:08:31;5.20;82.70
14727;DHT22;7454;51.256;8.176;2023-01-31T17:11:02;5.20;82.50
14727;DHT22;7454;51.256;8.176;2023-01-31T17:13:35;5.20;82.10
14727;DHT22;7454;51.256;8.176;2023-01-31T17:16:01;5.30;81.30
14727;DHT22;7454;51.256;8.176;2023-01-31T17:18:26;5.30;81.10
14727;DHT22;7454;51.256;8.176;2023-01-31T17:20:52;5.30;81.00
14727;DHT22;7454;51.256;8.176;2023-01-31T17:23:18;5.30;81.00
14727;DHT22;7454;51.256;8.176;2023-01-31T17:25:43;5.30;80.80
14727;DHT22;7454;51.256;8.176;2023-01-31T17:28:10;5.30;80.90
14727;DHT22;7454;51.256;8.176;2023-01-31T17:30:41;5.30;80.80
14727;DHT22;7454;51.256;8.176;2023-01-31T17:33:12;5.40;80.60
14727;DHT22;7454;51.256;8.176;2023-01-31T17:35:40;5.40;80.60
14727;DHT22;7454;51.256;8.176;2023-01-31T17:38:07;5.40;80.70
14727;DHT22;7454;51.256;8.176;2023-01-31T17:40:33;5.40;80.70
14727;DHT22;7454;51.256;8.176;2023-01-31T17:43:00;5.40;80.50
14727;DHT22;7454;51.256;8.176;2023-01-31T17:45:27;5.40;80.60
14727;DHT22;7454;51.256;8.176;2023-01-31T17:47:53;5.40;80.50
14727;DHT22;7454;51.256;8.176;2023-01-31T17:50:20;5.40;80.60
14727;DHT22;7454;51.256;8.176;2023-01-31T17:52:47;5.40;80.70
14727;DHT22;7454;51.256;8.176;2023-01-31T17:55:13;5.40;80.70
14727;DHT22;7454;51.256;8.176;2023-01-31T17:57:39;5.40;80.60
14727;DHT22;7454;51.256;8.176;2023-01-31T18:00:07;5.50;80.50
14727;DHT22;7454;51.256;8.176;2023-01-31T18:02:35;5.50;80.50
14727;DHT22;7454;51.256;8.176;2023-01-31T18:05:02;5.50;80.40
14727;DHT22;7454;51.256;8.176;2023-01-31T18:07:29;5.50;80.40
14727;DHT22;7454;51.256;8.176;2023-01-31T18:09:54;5.50;80.30
14727;DHT22;7454;51.256;8.176;2023-01-31T18:12:20;5.50;80.20
14727;DHT22;7454;51.256;8.176;2023-01-31T18:14:45;5.60;80.20
14727;DHT22;7454;51.256;8.176;2023-01-31T18:17:11;5.50;80.20
14727;DHT22;7454;51.256;8.176;2023-01-31T18:19:37;5.50;80.10
14727;DHT22;7454;51.256;8.176;2023-01-31T18:22:03;5.50;80.10
14727;DHT22;7454;51.256;8.176;2023-01-31T18:24:29;5.60;80.10
14727;DHT22;7454;51.256;8.176;2023-01-31T18:26:55;5.50;80.10
14727;DHT22;7454;51.256;8.176;2023-01-31T18:29:21;5.50;80.00
14727;DHT22;7454;51.256;8.176;2023-01-31T18:31:49;5.50;80.00